sensor_id;sensor_type;location;lat;lon;timestamp;P1;durP1;ratioP1;P2;durP2;ratioP2
65822;SDS011;52585;47.566;19.056;2022-12-18T00:01:21;22.90;;;12.20;;
65822;SDS011;52585;47.566;19.056;2022-12-18T00:03:49;18.70;;;11.60;;
65822;SDS011;52585;47.566;19.056;2022-12-18T00:06:16;23.10;;;11.80;;
65822;SDS011;52585;47.566;19.056;2022-12-18T00:08:43;21.90;;;12.80;;
65822;SDS011;52585;47.566;19.056;2022-12-18T00:11:18;22.10;;;11.70;;
65822;SDS011;52585;47.566;19.056;2022-12-18T00:13:46;23.00;;;12.60;;
65822;SDS011;52585;47.566;19.056;2022-12-18T00:16:15;20.70;;;12.50;;
65822;SDS011;52585;47.566;19.056;2022-12-18T00:21:14;18.50;;;10.60;;
65822;SDS011;52585;47.566;19.056;2022-12-18T00:23:41;22.10;;;12.40;;
65822;SDS011;52585;47.566;19.056;2022-12-18T00:26:35;20.00;;;11.50;;
65822;SDS011;52585;47.566;19.056;2022-12-18T00:29:09;18.60;;;10.60;;
65822;SDS011;52585;47.566;19.056;2022-12-18T00:31:39;21.60;;;11.90;;
65822;SDS011;52585;47.566;19.056;2022-12-18T00:34:05;21.50;;;11.90;;
65822;SDS011;52585;47.566;19.056;2022-12-18T00:36:33;19.50;;;11.90;;
65822;SDS011;52585;47.566;19.056;2022-12-18T00:39:02;20.90;;;11.40;;
65822;SDS011;52585;47.566;19.056;2022-12-18T00:41:29;18.50;;;11.20;;
65822;SDS011;52585;47.566;19.056;2022-12-18T00:44:15;20.10;;;11.50;;
65822;SDS011;52585;47.566;19.056;2022-12-18T00:46:43;21.60;;;11.30;;
65822;SDS011;52585;47.566;19.056;2022-12-18T00:49:14;23.90;;;11.40;;
65822;SDS011;52585;47.566;19.056;2022-12-18T00:51:41;21.00;;;12.20;;
65822;SDS011;52585;47.566;19.056;2022-12-18T00:54:07;18.80;;;11.70;;
65822;SDS011;52585;47.566;19.056;2022-12-18T00:56:35;22.50;;;12.50;;
65822;SDS011;52585;47.566;19.056;2022-12-18T00:59:02;20.80;;;12.40;;
65822;SDS011;52585;47.566;19.056;2022-12-18T01:01:28;20.00;;;12.40;;
65822;SDS011;52585;47.566;19.056;2022-12-18T01:03:57;21.80;;;12.40;;
65822;SDS011;52585;47.566;19.056;2022-12-18T01:06:22;20.80;;;11.60;;
65822;SDS011;52585;47.566;19.056;2022-12-18T01:08:48;20.60;;;12.00;;
65822;SDS011;52585;47.566;19.056;2022-12-18T01:11:16;22.40;;;12.40;;
65822;SDS011;52585;47.566;19.056;2022-12-18T01:13:43;22.10;;;12.90;;
65822;SDS011;52585;47.566;19.056;2022-12-18T01:16:12;24.10;;;13.00;;
65822;SDS011;52585;47.566;19.056;2022-12-18T01:18:38;20.30;;;11.60;;
65822;SDS011;52585;47.566;19.056;2022-12-18T01:21:09;19.60;;;11.50;;
65822;SDS011;52585;47.566;19.056;2022-12-18T01:23:37;19.50;;;11.50;;
65822;SDS011;52585;47.566;19.056;2022-12-18T01:26:08;23.80;;;12.70;;
65822;SDS011;52585;47.566;19.056;2022-12-18T01:28:35;22.80;;;11.60;;
65822;SDS011;52585;47.566;19.056;2022-12-18T01:31:18;20.40;;;11.50;;
65822;SDS011;52585;47.566;19.056;2022-12-18T01:33:45;21.70;;;11.60;;
65822;SDS011;52585;47.566;19.056;2022-12-18T01:36:18;19.40;;;12.00;;
65822;SDS011;52585;47.566;19.056;2022-12-18T01:38:45;20.90;;;11.60;;
65822;SDS011;52585;47.566;19.056;2022-12-18T01:41:12;19.40;;;12.20;;
65822;SDS011;52585;47.566;19.056;2022-12-18T01:46:13;21.50;;;12.20;;
65822;SDS011;52585;47.566;19.056;2022-12-18T01:48:40;23.50;;;12.90;;
65822;SDS011;52585;47.566;19.056;2022-12-18T01:51:09;21.60;;;12.20;;
65822;SDS011;52585;47.566;19.056;2022-12-18T01:53:37;20.70;;;12.20;;
65822;SDS011;52585;47.566;19.056;2022-12-18T01:56:06;20.10;;;12.70;;
65822;SDS011;52585;47.566;19.056;2022-12-18T01:58:41;21.80;;;11.90;;
65822;SDS011;52585;47.566;19.056;2022-12-18T02:01:31;19.70;;;11.80;;
65822;SDS011;52585;47.566;19.056;2022-12-18T02:04:24;22.30;;;12.10;;
65822;SDS011;52585;47.566;19.056;2022-12-18T02:13:20;19.90;;;11.10;;
65822;SDS011;52585;47.566;19.056;2022-12-18T02:18:59;18.40;;;11.90;;
65822;SDS011;52585;47.566;19.056;2022-12-18T02:22:10;21.60;;;12.20;;
65822;SDS011;52585;47.566;19.056;2022-12-18T02:27:19;21.80;;;12.70;;
65822;SDS011;52585;47.566;19.056;2022-12-18T02:29:51;23.10;;;11.90;;
65822;SDS011;52585;47.566;19.056;2022-12-18T02:32:25;24.10;;;12.60;;
65822;SDS011;52585;47.566;19.056;2022-12-18T02:34:56;20.40;;;12.50;;
65822;SDS011;52585;47.566;19.056;2022-12-18T02:37:23;22.20;;;12.90;;
65822;SDS011;52585;47.566;19.056;2022-12-18T02:39:53;22.30;;;13.30;;
65822;SDS011;52585;47.566;19.056;2022-12-18T02:42:22;20.50;;;12.50;;
65822;SDS011;52585;47.566;19.056;2022-12-18T02:44:50;27.60;;;14.10;;
65822;SDS011;52585;47.566;19.056;2022-12-18T02:47:21;19.40;;;12.70;;
65822;SDS011;52585;47.566;19.056;2022-12-18T02:57:56;17.20;;;10.80;;
65822;SDS011;52585;47.566;19.056;2022-12-18T03:00:35;23.90;;;13.20;;
65822;SDS011;52585;47.566;19.056;2022-12-18T03:06:26;21.20;;;11.70;;
65822;SDS011;52585;47.566;19.056;2022-12-18T03:09:04;20.50;;;12.30;;
65822;SDS011;52585;47.566;19.056;2022-12-18T03:11:37;21.70;;;12.20;;
65822;SDS011;52585;47.566;19.056;2022-12-18T03:14:27;21.50;;;12.30;;
65822;SDS011;52585;47.566;19.056;2022-12-18T03:16:59;25.10;;;13.00;;
65822;SDS011;52585;47.566;19.056;2022-12-18T03:19:29;22.40;;;12.40;;
65822;SDS011;52585;47.566;19.056;2022-12-18T03:22:00;21.50;;;13.50;;
65822;SDS011;52585;47.566;19.056;2022-12-18T03:24:29;23.00;;;12.60;;
65822;SDS011;52585;47.566;19.056;2022-12-18T03:27:02;21.40;;;13.10;;
65822;SDS011;52585;47.566;19.056;2022-12-18T03:29:38;22.40;;;12.10;;
65822;SDS011;52585;47.566;19.056;2022-12-18T03:32:31;22.00;;;12.30;;
65822;SDS011;52585;47.566;19.056;2022-12-18T03:35:23;19.90;;;11.70;;
65822;SDS011;52585;47.566;19.056;2022-12-18T03:37:53;20.00;;;11.80;;
65822;SDS011;52585;47.566;19.056;2022-12-18T03:44:06;19.90;;;12.80;;
65822;SDS011;52585;47.566;19.056;2022-12-18T03:46:15;21.60;;;11.70;;
65822;SDS011;52585;47.566;19.056;2022-12-18T03:48:52;22.20;;;12.30;;
65822;SDS011;52585;47.566;19.056;2022-12-18T03:54:02;24.20;;;13.00;;
65822;SDS011;52585;47.566;19.056;2022-12-18T03:56:33;20.90;;;12.30;;
65822;SDS011;52585;47.566;19.056;2022-12-18T03:59:08;20.70;;;11.30;;
65822;SDS011;52585;47.566;19.056;2022-12-18T04:01:41;20.20;;;11.60;;
65822;SDS011;52585;47.566;19.056;2022-12-18T04:06:40;17.20;;;10.90;;
65822;SDS011;52585;47.566;19.056;2022-12-18T04:09:07;19.00;;;11.10;;
65822;SDS011;52585;47.566;19.056;2022-12-18T04:11:33;20.50;;;11.70;;
65822;SDS011;52585;47.566;19.056;2022-12-18T04:13:59;19.00;;;11.20;;
65822;SDS011;52585;47.566;19.056;2022-12-18T04:16:26;19.50;;;11.50;;
65822;SDS011;52585;47.566;19.056;2022-12-18T04:18:52;20.20;;;11.70;;
65822;SDS011;52585;47.566;19.056;2022-12-18T04:21:19;22.80;;;12.90;;
65822;SDS011;52585;47.566;19.056;2022-12-18T04:23:46;21.80;;;13.00;;
65822;SDS011;52585;47.566;19.056;2022-12-18T04:26:12;21.20;;;13.00;;
65822;SDS011;52585;47.566;19.056;2022-12-18T04:28:37;22.00;;;12.00;;
65822;SDS011;52585;47.566;19.056;2022-12-18T04:31:03;24.30;;;13.20;;
65822;SDS011;52585;47.566;19.056;2022-12-18T04:33:28;24.80;;;12.90;;
65822;SDS011;52585;47.566;19.056;2022-12-18T04:35:54;22.20;;;11.90;;
65822;SDS011;52585;47.566;19.056;2022-12-18T04:38:19;21.40;;;12.30;;
65822;SDS011;52585;47.566;19.056;2022-12-18T04:40:45;24.30;;;12.20;;
65822;SDS011;52585;47.566;19.056;2022-12-18T04:43:10;20.50;;;12.30;;
65822;SDS011;52585;47.566;19.056;2022-12-18T04:45:36;18.80;;;11.90;;
65822;SDS011;52585;47.566;19.056;2022-12-18T04:48:03;21.70;;;12.10;;
65822;SDS011;52585;47.566;19.056;2022-12-18T04:50:30;20.90;;;12.30;;
65822;SDS011;52585;47.566;19.056;2022-12-18T04:52:56;22.20;;;12.50;;
65822;SDS011;52585;47.566;19.056;2022-12-18T04:55:22;22.80;;;12.60;;
65822;SDS011;52585;47.566;19.056;2022-12-18T04:57:48;21.00;;;12.60;;
65822;SDS011;52585;47.566;19.056;2022-12-18T05:00:14;19.50;;;12.20;;
65822;SDS011;52585;47.566;19.056;2022-12-18T05:02:40;21.90;;;12.40;;
65822;SDS011;52585;47.566;19.056;2022-12-18T05:05:06;21.80;;;12.90;;
65822;SDS011;52585;47.566;19.056;2022-12-18T05:07:32;19.80;;;12.80;;
65822;SDS011;52585;47.566;19.056;2022-12-18T05:09:57;22.40;;;12.40;;
65822;SDS011;52585;47.566;19.056;2022-12-18T05:12:23;21.20;;;11.90;;
65822;SDS011;52585;47.566;19.056;2022-12-18T05:14:49;24.60;;;12.70;;
65822;SDS011;52585;47.566;19.056;2022-12-18T05:17:14;19.60;;;12.30;;
65822;SDS011;52585;47.566;19.056;2022-12-18T05:19:40;20.40;;;11.50;;
65822;SDS011;52585;47.566;19.056;2022-12-18T05:22:05;22.30;;;13.00;;
65822;SDS011;52585;47.566;19.056;2022-12-18T05:24:32;20.20;;;11.20;;
65822;SDS011;52585;47.566;19.056;2022-12-18T05:26:57;20.90;;;12.60;;
65822;SDS011;52585;47.566;19.056;2022-12-18T05:29:23;24.40;;;11.90;;
65822;SDS011;52585;47.566;19.056;2022-12-18T05:31:49;21.00;;;12.90;;
65822;SDS011;52585;47.566;19.056;2022-12-18T05:34:14;24.10;;;12.50;;
65822;SDS011;52585;47.566;19.056;2022-12-18T05:36:40;20.70;;;12.30;;
65822;SDS011;52585;47.566;19.056;2022-12-18T05:39:06;23.20;;;12.40;;
65822;SDS011;52585;47.566;19.056;2022-12-18T05:41:32;20.80;;;12.00;;
65822;SDS011;52585;47.566;19.056;2022-12-18T05:43:58;24.40;;;12.00;;
65822;SDS011;52585;47.566;19.056;2022-12-18T05:46:24;21.30;;;12.80;;
65822;SDS011;52585;47.566;19.056;2022-12-18T05:48:51;19.90;;;12.20;;
65822;SDS011;52585;47.566;19.056;2022-12-18T05:51:19;20.70;;;12.10;;
65822;SDS011;52585;47.566;19.056;2022-12-18T05:53:46;22.30;;;12.50;;
65822;SDS011;52585;47.566;19.056;2022-12-18T05:56:19;21.90;;;12.00;;
65822;SDS011;52585;47.566;19.056;2022-12-18T05:58:47;19.70;;;11.30;;
65822;SDS011;52585;47.566;19.056;2022-12-18T06:01:18;23.30;;;12.30;;
65822;SDS011;52585;47.566;19.056;2022-12-18T06:03:47;20.30;;;11.80;;
65822;SDS011;52585;47.566;19.056;2022-12-18T06:06:25;20.00;;;11.30;;
65822;SDS011;52585;47.566;19.056;2022-12-18T06:08:52;18.80;;;11.10;;
65822;SDS011;52585;47.566;19.056;2022-12-18T06:11:21;18.30;;;11.30;;
65822;SDS011;52585;47.566;19.056;2022-12-18T06:13:50;20.70;;;11.80;;
65822;SDS011;52585;47.566;19.056;2022-12-18T06:16:17;20.30;;;10.90;;
65822;SDS011;52585;47.566;19.056;2022-12-18T06:18:43;19.40;;;11.10;;
65822;SDS011;52585;47.566;19.056;2022-12-18T06:21:08;20.80;;;11.40;;
65822;SDS011;52585;47.566;19.056;2022-12-18T06:23:34;21.30;;;11.60;;
65822;SDS011;52585;47.566;19.056;2022-12-18T06:26:10;20.30;;;11.10;;
65822;SDS011;52585;47.566;19.056;2022-12-18T06:28:37;19.90;;;11.40;;
65822;SDS011;52585;47.566;19.056;2022-12-18T06:31:03;18.90;;;11.40;;
65822;SDS011;52585;47.566;19.056;2022-12-18T06:33:30;18.90;;;11.10;;
65822;SDS011;52585;47.566;19.056;2022-12-18T06:36:04;18.70;;;10.70;;
65822;SDS011;52585;47.566;19.056;2022-12-18T06:38:33;19.90;;;11.40;;
65822;SDS011;52585;47.566;19.056;2022-12-18T06:41:00;20.30;;;12.30;;
65822;SDS011;52585;47.566;19.056;2022-12-18T06:43:25;20.20;;;11.60;;
65822;SDS011;52585;47.566;19.056;2022-12-18T06:45:59;29.10;;;13.60;;
65822;SDS011;52585;47.566;19.056;2022-12-18T06:48:26;25.50;;;12.80;;
65822;SDS011;52585;47.566;19.056;2022-12-18T06:50:51;25.40;;;13.50;;
65822;SDS011;52585;47.566;19.056;2022-12-18T06:53:17;24.20;;;13.30;;
65822;SDS011;52585;47.566;19.056;2022-12-18T06:55:43;22.00;;;12.90;;
65822;SDS011;52585;47.566;19.056;2022-12-18T06:58:08;20.50;;;12.00;;
65822;SDS011;52585;47.566;19.056;2022-12-18T07:00:34;21.40;;;11.90;;
65822;SDS011;52585;47.566;19.056;2022-12-18T07:03:01;21.60;;;11.90;;
65822;SDS011;52585;47.566;19.056;2022-12-18T07:05:26;18.60;;;11.30;;
65822;SDS011;52585;47.566;19.056;2022-12-18T07:07:52;18.60;;;11.10;;
65822;SDS011;52585;47.566;19.056;2022-12-18T07:10:17;21.40;;;12.00;;
65822;SDS011;52585;47.566;19.056;2022-12-18T07:12:43;21.50;;;12.00;;
65822;SDS011;52585;47.566;19.056;2022-12-18T07:15:09;20.80;;;12.00;;
65822;SDS011;52585;47.566;19.056;2022-12-18T07:17:35;20.90;;;11.50;;
65822;SDS011;52585;47.566;19.056;2022-12-18T07:20:01;18.10;;;10.90;;
65822;SDS011;52585;47.566;19.056;2022-12-18T07:22:26;20.30;;;11.50;;
65822;SDS011;52585;47.566;19.056;2022-12-18T07:24:52;18.90;;;10.80;;
65822;SDS011;52585;47.566;19.056;2022-12-18T07:27:18;19.70;;;11.60;;
65822;SDS011;52585;47.566;19.056;2022-12-18T07:29:44;17.20;;;10.50;;
65822;SDS011;52585;47.566;19.056;2022-12-18T07:32:10;18.30;;;10.10;;
65822;SDS011;52585;47.566;19.056;2022-12-18T07:34:35;21.10;;;11.70;;
65822;SDS011;52585;47.566;19.056;2022-12-18T07:37:01;19.50;;;10.20;;
65822;SDS011;52585;47.566;19.056;2022-12-18T07:39:26;19.30;;;10.30;;
65822;SDS011;52585;47.566;19.056;2022-12-18T07:41:52;17.70;;;10.90;;
65822;SDS011;52585;47.566;19.056;2022-12-18T07:44:38;21.10;;;11.30;;
65822;SDS011;52585;47.566;19.056;2022-12-18T07:47:04;22.30;;;12.10;;
65822;SDS011;52585;47.566;19.056;2022-12-18T07:49:30;23.10;;;11.90;;
65822;SDS011;52585;47.566;19.056;2022-12-18T07:51:56;23.60;;;12.70;;
65822;SDS011;52585;47.566;19.056;2022-12-18T07:54:23;21.40;;;11.30;;
65822;SDS011;52585;47.566;19.056;2022-12-18T07:56:50;23.00;;;12.10;;
65822;SDS011;52585;47.566;19.056;2022-12-18T07:59:16;21.60;;;11.20;;
65822;SDS011;52585;47.566;19.056;2022-12-18T08:01:42;21.60;;;11.60;;
65822;SDS011;52585;47.566;19.056;2022-12-18T08:04:08;25.40;;;12.90;;
65822;SDS011;52585;47.566;19.056;2022-12-18T08:06:33;20.00;;;12.50;;
65822;SDS011;52585;47.566;19.056;2022-12-18T08:08:59;24.50;;;13.60;;
65822;SDS011;52585;47.566;19.056;2022-12-18T08:11:27;25.20;;;14.00;;
65822;SDS011;52585;47.566;19.056;2022-12-18T08:13:54;22.30;;;13.30;;
65822;SDS011;52585;47.566;19.056;2022-12-18T08:16:21;22.70;;;13.00;;
65822;SDS011;52585;47.566;19.056;2022-12-18T08:18:48;19.80;;;11.70;;
65822;SDS011;52585;47.566;19.056;2022-12-18T08:21:17;20.80;;;11.80;;
65822;SDS011;52585;47.566;19.056;2022-12-18T08:23:46;17.00;;;10.60;;
65822;SDS011;52585;47.566;19.056;2022-12-18T08:26:13;19.10;;;11.40;;
65822;SDS011;52585;47.566;19.056;2022-12-18T08:28:40;17.00;;;10.60;;
65822;SDS011;52585;47.566;19.056;2022-12-18T08:31:06;20.60;;;12.90;;
65822;SDS011;52585;47.566;19.056;2022-12-18T08:33:33;20.20;;;11.60;;
65822;SDS011;52585;47.566;19.056;2022-12-18T08:35:59;22.60;;;12.60;;
65822;SDS011;52585;47.566;19.056;2022-12-18T08:38:26;22.30;;;12.60;;
65822;SDS011;52585;47.566;19.056;2022-12-18T08:40:59;20.70;;;12.50;;
65822;SDS011;52585;47.566;19.056;2022-12-18T08:43:28;21.00;;;12.50;;
65822;SDS011;52585;47.566;19.056;2022-12-18T08:46:12;23.10;;;12.30;;
65822;SDS011;52585;47.566;19.056;2022-12-18T08:48:38;21.60;;;12.70;;
65822;SDS011;52585;47.566;19.056;2022-12-18T08:51:04;21.40;;;12.20;;
65822;SDS011;52585;47.566;19.056;2022-12-18T08:53:29;23.20;;;13.50;;
65822;SDS011;52585;47.566;19.056;2022-12-18T08:55:56;26.70;;;14.00;;
65822;SDS011;52585;47.566;19.056;2022-12-18T08:58:22;23.60;;;12.70;;
65822;SDS011;52585;47.566;19.056;2022-12-18T09:00:47;21.60;;;12.40;;
65822;SDS011;52585;47.566;19.056;2022-12-18T09:03:17;25.30;;;13.50;;
65822;SDS011;52585;47.566;19.056;2022-12-18T09:05:45;23.80;;;13.10;;
65822;SDS011;52585;47.566;19.056;2022-12-18T09:08:12;26.90;;;13.90;;
65822;SDS011;52585;47.566;19.056;2022-12-18T09:10:42;23.30;;;12.80;;
65822;SDS011;52585;47.566;19.056;2022-12-18T09:13:11;25.00;;;14.10;;
65822;SDS011;52585;47.566;19.056;2022-12-18T09:15:41;25.50;;;13.70;;
65822;SDS011;52585;47.566;19.056;2022-12-18T09:18:08;26.10;;;13.40;;
65822;SDS011;52585;47.566;19.056;2022-12-18T09:20:36;23.30;;;13.30;;
65822;SDS011;52585;47.566;19.056;2022-12-18T09:23:02;22.70;;;13.70;;
65822;SDS011;52585;47.566;19.056;2022-12-18T09:25:30;26.40;;;14.10;;
65822;SDS011;52585;47.566;19.056;2022-12-18T09:28:03;22.30;;;13.50;;
65822;SDS011;52585;47.566;19.056;2022-12-18T09:30:31;23.50;;;13.60;;
65822;SDS011;52585;47.566;19.056;2022-12-18T09:32:58;22.60;;;13.00;;
65822;SDS011;52585;47.566;19.056;2022-12-18T09:35:25;25.10;;;13.90;;
65822;SDS011;52585;47.566;19.056;2022-12-18T09:37:50;26.30;;;14.30;;
65822;SDS011;52585;47.566;19.056;2022-12-18T09:40:18;24.80;;;13.80;;
65822;SDS011;52585;47.566;19.056;2022-12-18T09:42:51;26.00;;;14.40;;
65822;SDS011;52585;47.566;19.056;2022-12-18T09:45:20;24.40;;;13.80;;
65822;SDS011;52585;47.566;19.056;2022-12-18T09:47:48;23.30;;;13.50;;
65822;SDS011;52585;47.566;19.056;2022-12-18T09:50:35;23.30;;;14.10;;
65822;SDS011;52585;47.566;19.056;2022-12-18T09:53:07;21.50;;;13.50;;
65822;SDS011;52585;47.566;19.056;2022-12-18T09:55:42;22.60;;;13.00;;
65822;SDS011;52585;47.566;19.056;2022-12-18T09:58:20;22.70;;;13.50;;
65822;SDS011;52585;47.566;19.056;2022-12-18T10:00:54;21.40;;;12.30;;
65822;SDS011;52585;47.566;19.056;2022-12-18T10:03:20;23.60;;;12.60;;
65822;SDS011;52585;47.566;19.056;2022-12-18T10:08:49;22.70;;;12.90;;
65822;SDS011;52585;47.566;19.056;2022-12-18T10:20:29;24.90;;;13.00;;
65822;SDS011;52585;47.566;19.056;2022-12-18T10:25:57;22.50;;;12.80;;
65822;SDS011;52585;47.566;19.056;2022-12-18T10:28:29;23.00;;;13.20;;
65822;SDS011;52585;47.566;19.056;2022-12-18T10:30:58;20.20;;;12.70;;
65822;SDS011;52585;47.566;19.056;2022-12-18T10:33:28;23.20;;;12.80;;
65822;SDS011;52585;47.566;19.056;2022-12-18T10:35:55;24.90;;;13.20;;
65822;SDS011;52585;47.566;19.056;2022-12-18T10:38:25;23.60;;;13.60;;
65822;SDS011;52585;47.566;19.056;2022-12-18T10:40:59;25.20;;;12.80;;
65822;SDS011;52585;47.566;19.056;2022-12-18T10:44:17;21.40;;;11.30;;
65822;SDS011;52585;47.566;19.056;2022-12-18T10:46:47;22.70;;;12.60;;
65822;SDS011;52585;47.566;19.056;2022-12-18T10:49:34;20.40;;;12.00;;
65822;SDS011;52585;47.566;19.056;2022-12-18T10:52:21;18.30;;;10.10;;
65822;SDS011;52585;47.566;19.056;2022-12-18T10:55:02;19.10;;;10.80;;
65822;SDS011;52585;47.566;19.056;2022-12-18T10:57:37;19.90;;;11.30;;
65822;SDS011;52585;47.566;19.056;2022-12-18T11:00:24;17.70;;;10.20;;
65822;SDS011;52585;47.566;19.056;2022-12-18T11:02:56;17.60;;;9.90;;
65822;SDS011;52585;47.566;19.056;2022-12-18T11:07:50;18.30;;;10.70;;
65822;SDS011;52585;47.566;19.056;2022-12-18T11:10:20;17.30;;;10.70;;
65822;SDS011;52585;47.566;19.056;2022-12-18T11:12:48;17.50;;;10.30;;
65822;SDS011;52585;47.566;19.056;2022-12-18T11:15:27;16.10;;;10.40;;
65822;SDS011;52585;47.566;19.056;2022-12-18T11:17:55;15.40;;;9.20;;
65822;SDS011;52585;47.566;19.056;2022-12-18T11:23:20;17.20;;;9.80;;
65822;SDS011;52585;47.566;19.056;2022-12-18T11:25:58;16.30;;;9.60;;
65822;SDS011;52585;47.566;19.056;2022-12-18T11:28:40;17.40;;;9.80;;
65822;SDS011;52585;47.566;19.056;2022-12-18T11:31:20;17.30;;;9.60;;
65822;SDS011;52585;47.566;19.056;2022-12-18T11:34:02;18.30;;;10.20;;
65822;SDS011;52585;47.566;19.056;2022-12-18T11:36:45;18.10;;;10.70;;
65822;SDS011;52585;47.566;19.056;2022-12-18T11:39:45;17.50;;;11.20;;
65822;SDS011;52585;47.566;19.056;2022-12-18T11:42:27;19.10;;;11.40;;
65822;SDS011;52585;47.566;19.056;2022-12-18T11:45:20;17.60;;;10.10;;
65822;SDS011;52585;47.566;19.056;2022-12-18T11:48:16;18.90;;;10.30;;
65822;SDS011;52585;47.566;19.056;2022-12-18T11:50:56;19.60;;;11.10;;
65822;SDS011;52585;47.566;19.056;2022-12-18T11:53:25;18.90;;;10.30;;
65822;SDS011;52585;47.566;19.056;2022-12-18T12:04:26;17.20;;;10.50;;
65822;SDS011;52585;47.566;19.056;2022-12-18T12:23:26;16.90;;;9.60;;
65822;SDS011;52585;47.566;19.056;2022-12-18T12:31:26;11.00;;;7.90;;
65822;SDS011;52585;47.566;19.056;2022-12-18T12:34:26;10.90;;;7.40;;
65822;SDS011;52585;47.566;19.056;2022-12-18T12:37:37;12.80;;;8.10;;
65822;SDS011;52585;47.566;19.056;2022-12-18T12:40:14;14.20;;;7.40;;
65822;SDS011;52585;47.566;19.056;2022-12-18T12:42:50;11.90;;;6.80;;
65822;SDS011;52585;47.566;19.056;2022-12-18T12:51:33;10.60;;;6.60;;
65822;SDS011;52585;47.566;19.056;2022-12-18T12:54:03;10.60;;;6.60;;
65822;SDS011;52585;47.566;19.056;2022-12-18T13:02:42;12.00;;;6.40;;
65822;SDS011;52585;47.566;19.056;2022-12-18T13:05:47;8.70;;;5.20;;
65822;SDS011;52585;47.566;19.056;2022-12-18T13:08:25;12.20;;;6.00;;
65822;SDS011;52585;47.566;19.056;2022-12-18T13:10:54;8.70;;;5.90;;
65822;SDS011;52585;47.566;19.056;2022-12-18T13:13:52;9.10;;;5.80;;
65822;SDS011;52585;47.566;19.056;2022-12-18T13:16:24;9.60;;;5.90;;
65822;SDS011;52585;47.566;19.056;2022-12-18T13:18:52;8.80;;;5.90;;
65822;SDS011;52585;47.566;19.056;2022-12-18T13:21:23;10.00;;;6.30;;
65822;SDS011;52585;47.566;19.056;2022-12-18T13:23:54;10.00;;;6.50;;
65822;SDS011;52585;47.566;19.056;2022-12-18T13:31:13;14.40;;;8.00;;
65822;SDS011;52585;47.566;19.056;2022-12-18T13:34:22;12.90;;;8.40;;
65822;SDS011;52585;47.566;19.056;2022-12-18T13:36:52;12.20;;;7.40;;
65822;SDS011;52585;47.566;19.056;2022-12-18T13:39:21;9.50;;;6.50;;
65822;SDS011;52585;47.566;19.056;2022-12-18T13:44:37;13.90;;;7.80;;
65822;SDS011;52585;47.566;19.056;2022-12-18T13:47:32;11.70;;;7.50;;
65822;SDS011;52585;47.566;19.056;2022-12-18T13:49:59;15.40;;;8.00;;
65822;SDS011;52585;47.566;19.056;2022-12-18T13:52:35;16.60;;;8.20;;
65822;SDS011;52585;47.566;19.056;2022-12-18T13:55:10;12.40;;;8.20;;
65822;SDS011;52585;47.566;19.056;2022-12-18T13:57:41;14.50;;;8.00;;
65822;SDS011;52585;47.566;19.056;2022-12-18T14:02:51;14.20;;;8.50;;
65822;SDS011;52585;47.566;19.056;2022-12-18T14:05:29;16.80;;;9.80;;
65822;SDS011;52585;47.566;19.056;2022-12-18T14:08:11;13.60;;;8.50;;
65822;SDS011;52585;47.566;19.056;2022-12-18T14:10:45;13.60;;;8.80;;
65822;SDS011;52585;47.566;19.056;2022-12-18T14:13:26;13.40;;;8.40;;
65822;SDS011;52585;47.566;19.056;2022-12-18T14:15:56;13.60;;;8.30;;
65822;SDS011;52585;47.566;19.056;2022-12-18T14:18:45;18.00;;;8.80;;
65822;SDS011;52585;47.566;19.056;2022-12-18T14:21:26;13.40;;;7.70;;
65822;SDS011;52585;47.566;19.056;2022-12-18T14:24:18;14.40;;;8.00;;
65822;SDS011;52585;47.566;19.056;2022-12-18T14:26:48;13.30;;;7.90;;
65822;SDS011;52585;47.566;19.056;2022-12-18T14:29:25;13.80;;;7.60;;
65822;SDS011;52585;47.566;19.056;2022-12-18T14:34:46;15.00;;;8.00;;
65822;SDS011;52585;47.566;19.056;2022-12-18T14:37:16;17.50;;;8.20;;
65822;SDS011;52585;47.566;19.056;2022-12-18T14:40:01;15.40;;;9.10;;
65822;SDS011;52585;47.566;19.056;2022-12-18T14:42:43;15.70;;;8.40;;
65822;SDS011;52585;47.566;19.056;2022-12-18T14:45:34;19.20;;;9.40;;
65822;SDS011;52585;47.566;19.056;2022-12-18T14:48:16;16.30;;;9.30;;
65822;SDS011;52585;47.566;19.056;2022-12-18T14:51:05;23.30;;;12.00;;
65822;SDS011;52585;47.566;19.056;2022-12-18T14:53:44;21.60;;;13.00;;
65822;SDS011;52585;47.566;19.056;2022-12-18T14:56:13;27.60;;;13.70;;
65822;SDS011;52585;47.566;19.056;2022-12-18T14:58:57;27.20;;;13.90;;
65822;SDS011;52585;47.566;19.056;2022-12-18T15:01:26;24.30;;;13.60;;
65822;SDS011;52585;47.566;19.056;2022-12-18T15:03:56;24.60;;;13.60;;
65822;SDS011;52585;47.566;19.056;2022-12-18T15:06:34;26.50;;;12.70;;
65822;SDS011;52585;47.566;19.056;2022-12-18T15:09:27;23.20;;;13.30;;
65822;SDS011;52585;47.566;19.056;2022-12-18T15:12:00;26.20;;;12.50;;
65822;SDS011;52585;47.566;19.056;2022-12-18T15:14:34;24.10;;;12.40;;
65822;SDS011;52585;47.566;19.056;2022-12-18T15:17:14;22.00;;;12.80;;
65822;SDS011;52585;47.566;19.056;2022-12-18T15:19:48;28.00;;;14.00;;
65822;SDS011;52585;47.566;19.056;2022-12-18T15:22:33;29.90;;;15.60;;
65822;SDS011;52585;47.566;19.056;2022-12-18T15:25:01;30.40;;;15.40;;
65822;SDS011;52585;47.566;19.056;2022-12-18T15:27:46;32.30;;;16.10;;
65822;SDS011;52585;47.566;19.056;2022-12-18T15:30:21;28.40;;;16.20;;
65822;SDS011;52585;47.566;19.056;2022-12-18T15:32:49;31.40;;;17.20;;
65822;SDS011;52585;47.566;19.056;2022-12-18T15:35:17;31.50;;;16.80;;
65822;SDS011;52585;47.566;19.056;2022-12-18T15:37:45;28.70;;;16.90;;
65822;SDS011;52585;47.566;19.056;2022-12-18T15:40:18;26.70;;;16.40;;
65822;SDS011;52585;47.566;19.056;2022-12-18T15:42:52;29.60;;;16.20;;
65822;SDS011;52585;47.566;19.056;2022-12-18T15:45:38;31.60;;;17.30;;
65822;SDS011;52585;47.566;19.056;2022-12-18T15:48:19;28.40;;;16.30;;
65822;SDS011;52585;47.566;19.056;2022-12-18T15:50:52;29.40;;;17.00;;
65822;SDS011;52585;47.566;19.056;2022-12-18T15:53:23;32.80;;;17.60;;
65822;SDS011;52585;47.566;19.056;2022-12-18T15:55:50;34.50;;;18.30;;
65822;SDS011;52585;47.566;19.056;2022-12-18T15:58:35;29.00;;;16.70;;
65822;SDS011;52585;47.566;19.056;2022-12-18T16:01:01;38.10;;;17.40;;
65822;SDS011;52585;47.566;19.056;2022-12-18T16:03:27;44.50;;;17.50;;
65822;SDS011;52585;47.566;19.056;2022-12-18T16:05:55;32.50;;;16.80;;
65822;SDS011;52585;47.566;19.056;2022-12-18T16:08:25;29.00;;;17.50;;
65822;SDS011;52585;47.566;19.056;2022-12-18T16:10:52;30.10;;;16.40;;
65822;SDS011;52585;47.566;19.056;2022-12-18T16:13:19;29.70;;;15.70;;
65822;SDS011;52585;47.566;19.056;2022-12-18T16:15:50;27.20;;;15.70;;
65822;SDS011;52585;47.566;19.056;2022-12-18T16:18:19;26.80;;;15.00;;
65822;SDS011;52585;47.566;19.056;2022-12-18T16:20:45;28.90;;;15.20;;
65822;SDS011;52585;47.566;19.056;2022-12-18T16:23:14;30.20;;;15.90;;
65822;SDS011;52585;47.566;19.056;2022-12-18T16:25:41;31.20;;;16.30;;
65822;SDS011;52585;47.566;19.056;2022-12-18T16:28:08;27.30;;;15.90;;
65822;SDS011;52585;47.566;19.056;2022-12-18T16:30:35;29.60;;;16.60;;